Damian Piatek

Scout - Wisla Krakow
3 Apr 2027
Samstag
Verarbeitung

Persönlichkeit

Anpassungsfähigkeit (17) Ehrgeiz (10) Kontroverse (11) Loyalität (3) Druck (4) Professionalität (14) Fairness (8) Temperament (7)

Profil

Trainerstil Demokratisch
Lizenz Kontinentale C
Entschlossenheit 6
Menschenführung 5
Motivation 6
Disziplin 10
Arbeitszufriedenheit
50%
Ermüdung
0%
Rolle Scout
Gehalt 28.1K p/W
Vertrag 14.03.2029

Leistung

Verhalten Normal
Trainingseffektivität
18%
Spielerentwicklung
45%
Verletzungsprävention
30%
Taktische Umsetzung
45%

Letzte Ereignisse

Nahm an einer Scouting-Besprechung teil 14T her
Nahm an einer Scouting-Besprechung teil 21T her
Nahm an einer Scouting-Besprechung teil 28T her
Nahm an einer Scouting-Besprechung teil 35T her
Nahm an einer Scouting-Besprechung teil 42T her
Nahm an einer Scouting-Besprechung teil 49T her
Spiel beobachtet 49T her
Spiel beobachtet 56T her

Aktuell beobachtet

86
Spieler Verein Status Fähigkeit Vertrauen Beobachtet Zuletzt beobachtet Letzte Stimme
Bernardo Lima Porto Aktiv 89 / 110 40% 2 17.01.2027 -
Albert Bukari Liberty Professionals Aktiv 95 / 91 40% 1 17.01.2027 -
Jaygo van Ommeren Utrecht Aktiv 102 / 113 40% 1 17.01.2027 -
Roger Hinojo Espanyol Aktiv 118 / 118 40% 2 15.01.2027 -
Salvador Blopá Sporting CP Aktiv 119 / 124 40% 3 15.01.2027 -
Jofre Torrents Ajax Aktiv 120 / 131 40% 1 13.01.2027 -
Rhys Chadwick Peterborough United Aktiv 92 / 111 40% 1 13.01.2027 -
Raymond Agyemang Aduana Stars Abgelehnt 73 / 89 40% 1 10.01.2027 Mehr Infos nötig
Felix Appiah WAFA Aktiv 82 / 81 40% 1 10.01.2027 -
Riquelme Thompson-Jones Birmingham Aktiv 102 / 116 40% 2 08.01.2027 -
Rhys Walters Port Vale Aktiv 102 / 100 40% 1 08.01.2027 -
Mauricio Amaro Atlanta United FC Aktiv 120 / 131 40% 1 08.01.2027 -
Simphiwe Selepe Orlando Pirates Aktiv 119 / 108 40% 1 07.01.2027 -
Miguel Figueiredo Benfica Aktiv 111 / 123 40% 1 07.01.2027 -
Gopolang Taunyane Wa All Stars Aktiv 99 / 90 40% 1 06.01.2027 -
Davinchi Getafe Aktiv 109 / 128 40% 1 06.01.2027 -
Luther Ngcobo Ajax Cape Town Aktiv 108 / 110 40% 1 03.01.2027 -
Jake Batty Burton Albion Aktiv 99 / 96 40% 1 03.01.2027 -
Igor Orlikowski Zaglebie Aktiv 100 / 100 40% 1 03.01.2027 -
Wandile Duba Bidvest Wits Aktiv 112 / 102 40% 1 30.12.2026 -
Ibrahim Tarek Masr El Makasa Abgelehnt 131 / 127 40% 4 28.12.2026 Ablehnen
Camilo Durán Bloemfontein Celtic Aktiv 127 / 117 40% 2 28.12.2026 -
Anders Klynge Jagiellonia Aktiv 111 / 125 40% 1 28.12.2026 -
Alejo Dramisino Honved Aktiv 115 / 116 40% 2 19.12.2026 -
Agustín Ramírez Inter Aktiv 121 / 103 40% 1 19.12.2026 -
Daniel Kyerewaa Reading Aktiv 105 / 108 40% 1 08.12.2026 -
Filip Szymczak Zaglebie Aktiv 118 / 122 40% 1 08.12.2026 -
Angelo Gattermayer Wolfsberger AC Aktiv 120 / 118 40% 3 07.12.2026 -
Mauro Rodrigues Botev Plovdiv Aktiv 120 / 112 40% 1 07.12.2026 -
Ali Soliman Masr El Makasa Aktiv 121 / 132 40% 1 07.12.2026 -
Kacper Urbański Gornik Zabrze Aktiv 120 / 126 40% 3 05.12.2026 -
Leandro Andrade Polissia Aktiv 140 / 134 40% 1 05.12.2026 -
Matthias Seidl Rapid Wien Aktiv 126 / 126 40% 2 03.12.2026 -
Mduduzi Shabalala Kaizer Chiefs Abgelehnt 119 / 115 40% 2 03.12.2026 Mehr Infos nötig
Wiktor Długosz Korona Aktiv 108 / 105 40% 1 03.12.2026 -
Rodrigo Conceição Jagiellonia Aktiv 115 / 113 40% 2 30.11.2026 -
Robert Petkovic Zadar Aktiv 134 / 131 40% 2 30.11.2026 -
Juan Bezerra Zamalek Aktiv 129 / 117 40% 1 30.11.2026 -
Alex Luna Instituto Aktiv 125 / 124 40% 1 24.11.2026 -
Conrad Wallem Valerenga Aktiv 118 / 129 40% 2 23.11.2026 -
Emi Rodriguez Leon Aktiv 115 / 119 40% 1 23.11.2026 -
Beckham Castro Lugano Aktiv 114 / 119 40% 1 23.11.2026 -
Allahyar Sayyadmanesh Lech Aktiv 134 / 127 40% 1 21.11.2026 -
Bohdan Viunnyk Lechia Aktiv 113 / 110 40% 2 20.11.2026 -
Juan Pablo Gallego Fehervar Aktiv 101 / 106 40% 1 20.11.2026 -
Akinkunmi Amoo Ismaily Aktiv 120 / 111 40% 1 20.11.2026 -
Erick Ngcobo Black Aces Aktiv 92 / 101 40% 2 19.11.2026 -
Sergio Lozano Jagiellonia Aktiv 130 / 119 40% 2 19.11.2026 -
Artem Slesar Zorya Aktiv 115 / 117 40% 1 19.11.2026 -
Oleksandr Nazarenko Polissia Aktiv 131 / 126 40% 1 16.11.2026 -
Andrei Cordea CFR Cluj Aktiv 117 / 126 40% 1 16.11.2026 -
Ola Brynhildsen Bodo/Glimt Aktiv 141 / 114 40% 1 13.11.2026 -
Vitalii Dakhnovskyi Bukovyna Aktiv 115 / 114 40% 1 13.11.2026 -
Brian Figueroa Morelia Aktiv 103 / 105 40% 1 12.11.2026 -
Kauã Elias Shakhtar Aktiv 125 / 135 40% 1 12.11.2026 -
Rúben Vinagre Legia Aktiv 117 / 110 40% 1 11.11.2026 -
Thalente Mbatha Orlando Pirates Aktiv 121 / 122 40% 1 11.11.2026 -
Emil Ceïde Rosenborg Aktiv 134 / 117 40% 3 10.11.2026 -
José Barreto Fehervar Aktiv 118 / 115 40% 1 10.11.2026 -
Itumeleng Tau Ajax Cape Town Aktiv 126 / 117 40% 1 10.11.2026 -
Ole-Didrik Blomberg Bodo/Glimt Aktiv 126 / 135 40% 1 08.11.2026 -
Peter Federico Gornik Zabrze Aktiv 127 / 114 40% 1 08.11.2026 -
Marko Brest Olimpija Ljubljana Aktiv 120 / 117 40% 1 05.11.2026 -
Jack Currie Oxford United Aktiv 124 / 123 40% 1 03.11.2026 -
Mfundo Vilakazi Kaizer Chiefs Aktiv 119 / 123 40% 1 02.11.2026 -
Sinoxolo Kwayiba Chippa United Aktiv 103 / 114 40% 1 02.11.2026 -
Olalekan Adeleke Remo Stars Aktiv 87 / 80 40% 1 07.10.2026 -
Arjan Malić Sturm Graz Abgelehnt 120 / 119 40% 1 07.10.2026 Mehr Infos nötig
Tim Drexler Red Bull Salzburg Aktiv 124 / 125 40% 1 07.10.2026 -
Daniel Herrera Cortulua Aktiv 114 / 123 40% 2 06.10.2026 -
Mbekezeli Mbokazi Chicago Fire Aktiv 121 / 133 40% 1 06.10.2026 -
Bade Aluko Leicester City Aktiv 115 / 114 40% 2 07.09.2026 -
Brooklyn Raines New England Revolution Aktiv 112 / 124 40% 1 07.09.2026 -
Juan Cruz Cortazzo Albacete Aktiv 113 / 113 40% 1 07.09.2026 -
Luther Phiri SuperSport United Aktiv 111 / 118 40% 2 02.09.2026 -
Kai Andrews Coventry City Aktiv 104 / 124 40% 1 02.09.2026 -
Leonardo Barroso Chicago Fire Abgelehnt 104 / 112 40% 1 01.09.2026 Mehr Infos nötig
Morgan Zwane Platinum Stars Aktiv 100 / 95 40% 1 01.09.2026 -
Joel Ezra Enyimba Aktiv 76 / 106 40% 1 31.08.2026 -
Itumeleng Zungu Free State Stars Aktiv 118 / 123 40% 1 25.08.2026 -
Leandro Aldeco Vélez Aktiv 89 / 91 40% 1 15.08.2026 -
Magnus Bech Riisnæs Bodo/Glimt Aktiv 105 / 130 40% 1 12.08.2026 -
Michał Gurgul Lech Abgelehnt 95 / 107 40% 1 12.08.2026 Mehr Infos nötig
Siyabonga Mabunda FCSB Aktiv 93 / 95 40% 1 12.08.2026 -
Luis Mina America de Cali Aktiv 94 / 100 40% 1 01.08.2026 -
Jakub Adkonis Lechia Aktiv 98 / 109 40% 1 01.08.2026 -